sensor_id;sensor_type;location;lat;lon;timestamp;pressure;altitude;pressure_sealevel;temperature;humidity
51928;BME280;37953;52.806;18.270;2022-12-29T00:01:35;100098.63;;;6.96;100.00
51928;BME280;37953;52.806;18.270;2022-12-29T00:04:01;100098.66;;;6.98;100.00
51928;BME280;37953;52.806;18.270;2022-12-29T00:06:27;100097.81;;;6.99;100.00
51928;BME280;37953;52.806;18.270;2022-12-29T00:08:53;100092.66;;;6.99;100.00
51928;BME280;37953;52.806;18.270;2022-12-29T00:11:20;100085.75;;;6.99;100.00
51928;BME280;37953;52.806;18.270;2022-12-29T00:13:46;100068.53;;;7.00;100.00
51928;BME280;37953;52.806;18.270;2022-12-29T00:16:37;100065.13;;;7.01;100.00
51928;BME280;37953;52.806;18.270;2022-12-29T00:19:03;100071.16;;;7.01;100.00
51928;BME280;37953;52.806;18.270;2022-12-29T00:21:54;100065.13;;;7.01;100.00
51928;BME280;37953;52.806;18.270;2022-12-29T00:24:38;100051.34;;;7.02;100.00
51928;BME280;37953;52.806;18.270;2022-12-29T00:27:22;100050.50;;;7.01;100.00
51928;BME280;37953;52.806;18.270;2022-12-29T00:30:10;100051.38;;;7.03;100.00
51928;BME280;37953;52.806;18.270;2022-12-29T00:32:55;100052.22;;;7.04;100.00
51928;BME280;37953;52.806;18.270;2022-12-29T00:35:43;100054.84;;;7.05;100.00
51928;BME280;37953;52.806;18.270;2022-12-29T00:38:10;100050.50;;;7.04;100.00
51928;BME280;37953;52.806;18.270;2022-12-29T00:41:15;100065.16;;;7.05;100.00
51928;BME280;37953;52.806;18.270;2022-12-29T00:43:59;100065.16;;;7.07;100.00
51928;BME280;37953;52.806;18.270;2022-12-29T00:46:31;100060.00;;;7.07;100.00
51928;BME280;37953;52.806;18.270;2022-12-29T00:48:57;100060.88;;;7.07;100.00
51928;BME280;37953;52.806;18.270;2022-12-29T00:51:42;100049.69;;;7.08;100.00
51928;BME280;37953;52.806;18.270;2022-12-29T00:54:08;100047.97;;;7.07;100.00
51928;BME280;37953;52.806;18.270;2022-12-29T00:56:33;100054.00;;;7.08;100.00
51928;BME280;37953;52.806;18.270;2022-12-29T00:59:02;100063.47;;;7.09;100.00
51928;BME280;37953;52.806;18.270;2022-12-29T01:01:28;100062.59;;;7.08;100.00
51928;BME280;37953;52.806;18.270;2022-12-29T01:03:54;100065.19;;;7.08;100.00
51928;BME280;37953;52.806;18.270;2022-12-29T01:06:20;100065.19;;;7.08;100.00
51928;BME280;37953;52.806;18.270;2022-12-29T01:08:46;100056.59;;;7.08;100.00
51928;BME280;37953;52.806;18.270;2022-12-29T01:11:12;100054.84;;;7.08;100.00
51928;BME280;37953;52.806;18.270;2022-12-29T01:13:38;100055.72;;;7.09;100.00
51928;BME280;37953;52.806;18.270;2022-12-29T01:16:06;100051.44;;;7.09;100.00
51928;BME280;37953;52.806;18.270;2022-12-29T01:18:32;100053.16;;;7.10;100.00
51928;BME280;37953;52.806;18.270;2022-12-29T01:21:02;100050.56;;;7.10;100.00
51928;BME280;37953;52.806;18.270;2022-12-29T01:23:29;100046.28;;;7.12;100.00
51928;BME280;37953;52.806;18.270;2022-12-29T01:25:55;100045.47;;;7.13;100.00
51928;BME280;37953;52.806;18.270;2022-12-29T01:28:21;100049.72;;;7.13;100.00
51928;BME280;37953;52.806;18.270;2022-12-29T01:30:46;100048.03;;;7.13;100.00
51928;BME280;37953;52.806;18.270;2022-12-29T01:33:12;100044.56;;;7.13;100.00
51928;BME280;37953;52.806;18.270;2022-12-29T01:35:38;100043.72;;;7.14;100.00
51928;BME280;37953;52.806;18.270;2022-12-29T01:38:03;100032.53;;;7.13;100.00
51928;BME280;37953;52.806;18.270;2022-12-29T01:40:29;100038.53;;;7.12;100.00
51928;BME280;37953;52.806;18.270;2022-12-29T01:42:55;100032.53;;;7.13;100.00
51928;BME280;37953;52.806;18.270;2022-12-29T01:45:21;100033.41;;;7.14;100.00
51928;BME280;37953;52.806;18.270;2022-12-29T01:48:00;100030.81;;;7.14;100.00
51928;BME280;37953;52.806;18.270;2022-12-29T01:50:32;100029.09;;;7.14;100.00
51928;BME280;37953;52.806;18.270;2022-12-29T01:55:25;100024.78;;;7.15;100.00
51928;BME280;37953;52.806;18.270;2022-12-29T01:57:52;100034.28;;;7.16;100.00
51928;BME280;37953;52.806;18.270;2022-12-29T02:00:19;100035.13;;;7.17;100.00
51928;BME280;37953;52.806;18.270;2022-12-29T02:02:46;100019.63;;;7.17;100.00
51928;BME280;37953;52.806;18.270;2022-12-29T02:07:50;100011.06;;;7.18;100.00
51928;BME280;37953;52.806;18.270;2022-12-29T02:10:16;99999.00;;;7.18;100.00
51928;BME280;37953;52.806;18.270;2022-12-29T02:12:43;99989.53;;;7.19;100.00
51928;BME280;37953;52.806;18.270;2022-12-29T02:15:10;99986.09;;;7.18;100.00
51928;BME280;37953;52.806;18.270;2022-12-29T02:22:51;99975.75;;;7.18;100.00
51928;BME280;37953;52.806;18.270;2022-12-29T02:40:59;99940.41;;;7.14;100.00
51928;BME280;37953;52.806;18.270;2022-12-29T02:46:36;99938.69;;;7.11;100.00
51928;BME280;37953;52.806;18.270;2022-12-29T02:51:30;99934.34;;;7.10;100.00
51928;BME280;37953;52.806;18.270;2022-12-29T02:53:57;99936.06;;;7.10;100.00
51928;BME280;37953;52.806;18.270;2022-12-29T02:56:42;99930.91;;;7.10;100.00
51928;BME280;37953;52.806;18.270;2022-12-29T02:59:08;99933.47;;;7.08;100.00
51928;BME280;37953;52.806;18.270;2022-12-29T03:01:40;99930.88;;;7.08;100.00
51928;BME280;37953;52.806;18.270;2022-12-29T03:12:29;99932.63;;;7.09;100.00
51928;BME280;37953;52.806;18.270;2022-12-29T03:15:21;99919.72;;;7.09;100.00
51928;BME280;37953;52.806;18.270;2022-12-29T03:18:13;99930.91;;;7.10;100.00
51928;BME280;37953;52.806;18.270;2022-12-29T03:23:12;99936.94;;;7.10;100.00
51928;BME280;37953;52.806;18.270;2022-12-29T03:25:40;99930.03;;;7.09;100.00
51928;BME280;37953;52.806;18.270;2022-12-29T03:28:17;99924.00;;;7.10;100.00
51928;BME280;37953;52.806;18.270;2022-12-29T03:30:43;99927.44;;;7.11;100.00
51928;BME280;37953;52.806;18.270;2022-12-29T03:33:12;99924.88;;;7.11;100.00
51928;BME280;37953;52.806;18.270;2022-12-29T03:35:40;99924.03;;;7.12;100.00
51928;BME280;37953;52.806;18.270;2022-12-29T03:38:15;99918.88;;;7.12;100.00
51928;BME280;37953;52.806;18.270;2022-12-29T03:40:43;99909.41;;;7.12;100.00
51928;BME280;37953;52.806;18.270;2022-12-29T03:43:10;99913.72;;;7.13;100.00
51928;BME280;37953;52.806;18.270;2022-12-29T03:45:37;99913.72;;;7.13;100.00
51928;BME280;37953;52.806;18.270;2022-12-29T03:48:03;99908.56;;;7.13;100.00
51928;BME280;37953;52.806;18.270;2022-12-29T03:50:28;99904.25;;;7.14;100.00
51928;BME280;37953;52.806;18.270;2022-12-29T03:52:56;99910.28;;;7.14;100.00
51928;BME280;37953;52.806;18.270;2022-12-29T03:55:22;99902.53;;;7.14;100.00
51928;BME280;37953;52.806;18.270;2022-12-29T03:57:48;99899.94;;;7.14;100.00
51928;BME280;37953;52.806;18.270;2022-12-29T04:00:14;99899.94;;;7.14;100.00
51928;BME280;37953;52.806;18.270;2022-12-29T04:02:39;99901.66;;;7.14;100.00
51928;BME280;37953;52.806;18.270;2022-12-29T04:05:05;99898.22;;;7.17;100.00
51928;BME280;37953;52.806;18.270;2022-12-29T04:07:31;99891.34;;;7.16;100.00
51928;BME280;37953;52.806;18.270;2022-12-29T04:09:57;99887.91;;;7.17;100.00
51928;BME280;37953;52.806;18.270;2022-12-29T04:12:23;99891.34;;;7.17;100.00
51928;BME280;37953;52.806;18.270;2022-12-29T04:14:49;99886.16;;;7.17;100.00
51928;BME280;37953;52.806;18.270;2022-12-29T04:17:14;99887.06;;;7.18;100.00
51928;BME280;37953;52.806;18.270;2022-12-29T04:19:40;99885.34;;;7.18;100.00
51928;BME280;37953;52.806;18.270;2022-12-29T04:22:06;99892.22;;;7.19;100.00
51928;BME280;37953;52.806;18.270;2022-12-29T04:24:32;99886.22;;;7.20;100.00
51928;BME280;37953;52.806;18.270;2022-12-29T04:26:57;99880.19;;;7.20;100.00
51928;BME280;37953;52.806;18.270;2022-12-29T04:29:23;99878.47;;;7.20;100.00
51928;BME280;37953;52.806;18.270;2022-12-29T04:31:49;99888.81;;;7.22;100.00
51928;BME280;37953;52.806;18.270;2022-12-29T04:34:15;99879.31;;;7.21;100.00
51928;BME280;37953;52.806;18.270;2022-12-29T04:36:41;99885.34;;;7.21;100.00
51928;BME280;37953;52.806;18.270;2022-12-29T04:39:07;99880.19;;;7.21;100.00
51928;BME280;37953;52.806;18.270;2022-12-29T04:41:32;99879.31;;;7.21;100.00
51928;BME280;37953;52.806;18.270;2022-12-29T04:43:58;99878.47;;;7.20;100.00
51928;BME280;37953;52.806;18.270;2022-12-29T04:46:24;99873.28;;;7.20;100.00
51928;BME280;37953;52.806;18.270;2022-12-29T04:48:50;99870.72;;;7.20;100.00
51928;BME280;37953;52.806;18.270;2022-12-29T04:51:16;99875.88;;;7.20;100.00
51928;BME280;37953;52.806;18.270;2022-12-29T04:53:42;99871.56;;;7.19;100.00
51928;BME280;37953;52.806;18.270;2022-12-29T04:56:08;99876.72;;;7.19;100.00
51928;BME280;37953;52.806;18.270;2022-12-29T04:58:35;99867.25;;;7.18;100.00
51928;BME280;37953;52.806;18.270;2022-12-29T05:01:00;99869.84;;;7.20;100.00
51928;BME280;37953;52.806;18.270;2022-12-29T05:03:26;99858.63;;;7.19;100.00
51928;BME280;37953;52.806;18.270;2022-12-29T05:05:55;99860.38;;;7.20;100.00
51928;BME280;37953;52.806;18.270;2022-12-29T05:08:21;99864.66;;;7.18;100.00
51928;BME280;37953;52.806;18.270;2022-12-29T05:10:47;99862.09;;;7.18;100.00
51928;BME280;37953;52.806;18.270;2022-12-29T05:13:13;99858.63;;;7.19;100.00
51928;BME280;37953;52.806;18.270;2022-12-29T05:15:39;99861.25;;;7.21;100.00
51928;BME280;37953;52.806;18.270;2022-12-29T05:18:05;99862.09;;;7.21;100.00
51928;BME280;37953;52.806;18.270;2022-12-29T05:20:30;99856.94;;;7.23;100.00
51928;BME280;37953;52.806;18.270;2022-12-29T05:22:56;99862.97;;;7.23;100.00
51928;BME280;37953;52.806;18.270;2022-12-29T05:25:22;99854.38;;;7.24;100.00
51928;BME280;37953;52.806;18.270;2022-12-29T05:27:48;99857.84;;;7.29;100.00
51928;BME280;37953;52.806;18.270;2022-12-29T05:30:13;99850.09;;;7.31;100.00
51928;BME280;37953;52.806;18.270;2022-12-29T05:32:39;99835.50;;;7.34;100.00
51928;BME280;37953;52.806;18.270;2022-12-29T05:35:05;99838.97;;;7.37;100.00
51928;BME280;37953;52.806;18.270;2022-12-29T05:37:31;99826.88;;;7.39;100.00
51928;BME280;37953;52.806;18.270;2022-12-29T05:39:57;99820.88;;;7.41;100.00
51928;BME280;37953;52.806;18.270;2022-12-29T05:42:23;99818.28;;;7.43;100.00
51928;BME280;37953;52.806;18.270;2022-12-29T05:44:48;99826.06;;;7.46;100.00
51928;BME280;37953;52.806;18.270;2022-12-29T05:47:17;99822.63;;;7.47;100.00
51928;BME280;37953;52.806;18.270;2022-12-29T05:49:46;99810.59;;;7.47;100.00
51928;BME280;37953;52.806;18.270;2022-12-29T05:52:11;99808.88;;;7.49;100.00
51928;BME280;37953;52.806;18.270;2022-12-29T05:54:37;99801.13;;;7.49;100.00
51928;BME280;37953;52.806;18.270;2022-12-29T05:57:06;99800.25;;;7.50;100.00
51928;BME280;37953;52.806;18.270;2022-12-29T05:59:31;99792.50;;;7.50;100.00
51928;BME280;37953;52.806;18.270;2022-12-29T06:01:57;99796.81;;;7.51;100.00
51928;BME280;37953;52.806;18.270;2022-12-29T06:04:23;99792.50;;;7.52;100.00
51928;BME280;37953;52.806;18.270;2022-12-29T06:06:50;99789.06;;;7.53;100.00
51928;BME280;37953;52.806;18.270;2022-12-29T06:09:16;99787.34;;;7.53;100.00
51928;BME280;37953;52.806;18.270;2022-12-29T06:11:42;99787.34;;;7.55;100.00
51928;BME280;37953;52.806;18.270;2022-12-29T06:14:08;99794.25;;;7.54;100.00
51928;BME280;37953;52.806;18.270;2022-12-29T06:16:34;99800.25;;;7.55;100.00
51928;BME280;37953;52.806;18.270;2022-12-29T06:19:00;99808.00;;;7.55;100.00
51928;BME280;37953;52.806;18.270;2022-12-29T06:21:26;99816.63;;;7.54;100.00
51928;BME280;37953;52.806;18.270;2022-12-29T06:23:51;99816.63;;;7.54;100.00
51928;BME280;37953;52.806;18.270;2022-12-29T06:26:17;99810.59;;;7.55;100.00
51928;BME280;37953;52.806;18.270;2022-12-29T06:28:43;99808.00;;;7.55;100.00
51928;BME280;37953;52.806;18.270;2022-12-29T06:31:09;99813.19;;;7.57;100.00
51928;BME280;37953;52.806;18.270;2022-12-29T06:33:36;99807.19;;;7.56;100.00
51928;BME280;37953;52.806;18.270;2022-12-29T06:36:01;99806.31;;;7.57;100.00
51928;BME280;37953;52.806;18.270;2022-12-29T06:38:29;99801.13;;;7.57;100.00
51928;BME280;37953;52.806;18.270;2022-12-29T06:40:55;99799.41;;;7.56;100.00
51928;BME280;37953;52.806;18.270;2022-12-29T06:43:23;99807.19;;;7.56;100.00
51928;BME280;37953;52.806;18.270;2022-12-29T06:45:49;99808.88;;;7.55;100.00
51928;BME280;37953;52.806;18.270;2022-12-29T06:48:15;99810.59;;;7.55;100.00
51928;BME280;37953;52.806;18.270;2022-12-29T06:50:41;99805.44;;;7.55;100.00
51928;BME280;37953;52.806;18.270;2022-12-29T06:53:09;99818.34;;;7.55;100.00
51928;BME280;37953;52.806;18.270;2022-12-29T06:55:36;99819.22;;;7.55;100.00
51928;BME280;37953;52.806;18.270;2022-12-29T06:58:01;99826.97;;;7.55;100.00
51928;BME280;37953;52.806;18.270;2022-12-29T07:00:28;99824.41;;;7.54;100.00
51928;BME280;37953;52.806;18.270;2022-12-29T07:02:54;99833.88;;;7.55;100.00
51928;BME280;37953;52.806;18.270;2022-12-29T07:05:20;99837.31;;;7.54;100.00
51928;BME280;37953;52.806;18.270;2022-12-29T07:07:46;99826.97;;;7.54;100.00
51928;BME280;37953;52.806;18.270;2022-12-29T07:10:12;99819.22;;;7.54;100.00
51928;BME280;37953;52.806;18.270;2022-12-29T07:12:38;99814.06;;;7.54;100.00
51928;BME280;37953;52.806;18.270;2022-12-29T07:15:04;99817.50;;;7.54;100.00
51928;BME280;37953;52.806;18.270;2022-12-29T07:17:30;99818.34;;;7.55;100.00
51928;BME280;37953;52.806;18.270;2022-12-29T07:19:55;99822.69;;;7.56;100.00
51928;BME280;37953;52.806;18.270;2022-12-29T07:22:21;99823.56;;;7.58;100.00
51928;BME280;37953;52.806;18.270;2022-12-29T07:24:47;99833.91;;;7.58;100.00
51928;BME280;37953;52.806;18.270;2022-12-29T07:27:13;99827.00;;;7.59;100.00
51928;BME280;37953;52.806;18.270;2022-12-29T07:29:39;99827.00;;;7.59;100.00
51928;BME280;37953;52.806;18.270;2022-12-29T07:32:05;99830.44;;;7.59;100.00
51928;BME280;37953;52.806;18.270;2022-12-29T07:34:31;99820.94;;;7.60;100.00
51928;BME280;37953;52.806;18.270;2022-12-29T07:36:57;99827.84;;;7.59;100.00
51928;BME280;37953;52.806;18.270;2022-12-29T07:39:23;99839.03;;;7.60;100.00
51928;BME280;37953;52.806;18.270;2022-12-29T07:41:48;99828.72;;;7.60;100.00
51928;BME280;37953;52.806;18.270;2022-12-29T07:44:14;99839.94;;;7.60;100.00
51928;BME280;37953;52.806;18.270;2022-12-29T07:46:40;99834.75;;;7.62;100.00
51928;BME280;37953;52.806;18.270;2022-12-29T07:49:06;99827.00;;;7.63;100.00
51928;BME280;37953;52.806;18.270;2022-12-29T07:51:32;99840.78;;;7.64;100.00
51928;BME280;37953;52.806;18.270;2022-12-29T07:53:58;99833.91;;;7.64;100.00
51928;BME280;37953;52.806;18.270;2022-12-29T07:56:26;99833.06;;;7.65;100.00
51928;BME280;37953;52.806;18.270;2022-12-29T07:58:52;99832.22;;;7.66;100.00
51928;BME280;37953;52.806;18.270;2022-12-29T08:01:17;99836.53;;;7.69;100.00
51928;BME280;37953;52.806;18.270;2022-12-29T08:03:43;99837.41;;;7.71;100.00
51928;BME280;37953;52.806;18.270;2022-12-29T08:06:12;99831.38;;;7.70;100.00
51928;BME280;37953;52.806;18.270;2022-12-29T08:08:38;99833.09;;;7.73;100.00
51928;BME280;37953;52.806;18.270;2022-12-29T08:11:03;99823.59;;;7.73;100.00
51928;BME280;37953;52.806;18.270;2022-12-29T08:13:35;99818.44;;;7.75;100.00
51928;BME280;37953;52.806;18.270;2022-12-29T08:16:01;99821.03;;;7.75;100.00
51928;BME280;37953;52.806;18.270;2022-12-29T08:18:27;99812.41;;;7.76;100.00
51928;BME280;37953;52.806;18.270;2022-12-29T08:20:53;99816.72;;;7.79;100.00
51928;BME280;37953;52.806;18.270;2022-12-29T08:23:19;99818.47;;;7.80;100.00
51928;BME280;37953;52.806;18.270;2022-12-29T08:25:44;99818.47;;;7.81;100.00
51928;BME280;37953;52.806;18.270;2022-12-29T08:28:10;99820.19;;;7.81;100.00
51928;BME280;37953;52.806;18.270;2022-12-29T08:30:36;99817.59;;;7.82;100.00
51928;BME280;37953;52.806;18.270;2022-12-29T08:33:05;99831.41;;;7.84;100.00
51928;BME280;37953;52.806;18.270;2022-12-29T08:35:31;99827.09;;;7.85;100.00
51928;BME280;37953;52.806;18.270;2022-12-29T08:37:56;99825.38;;;7.87;100.00
51928;BME280;37953;52.806;18.270;2022-12-29T08:40:22;99828.84;;;7.87;100.00
51928;BME280;37953;52.806;18.270;2022-12-29T08:42:48;99839.16;;;7.89;100.00
51928;BME280;37953;52.806;18.270;2022-12-29T08:45:14;99829.69;;;7.89;100.00
51928;BME280;37953;52.806;18.270;2022-12-29T08:47:40;99827.97;;;7.90;100.00
51928;BME280;37953;52.806;18.270;2022-12-29T08:50:05;99816.75;;;7.91;100.00
51928;BME280;37953;52.806;18.270;2022-12-29T08:52:32;99814.19;;;7.92;100.00
51928;BME280;37953;52.806;18.270;2022-12-29T08:54:57;99822.81;;;7.94;100.00
51928;BME280;37953;52.806;18.270;2022-12-29T08:57:23;99821.09;;;7.95;100.00
51928;BME280;37953;52.806;18.270;2022-12-29T08:59:50;99840.91;;;7.98;100.00
51928;BME280;37953;52.806;18.270;2022-12-29T09:02:16;99834.91;;;7.99;100.00
51928;BME280;37953;52.806;18.270;2022-12-29T09:04:42;99828.00;;;7.99;100.00
51928;BME280;37953;52.806;18.270;2022-12-29T09:07:08;99822.84;;;8.01;100.00
51928;BME280;37953;52.806;18.270;2022-12-29T09:09:33;99829.72;;;8.02;100.00
51928;BME280;37953;52.806;18.270;2022-12-29T09:11:59;99832.31;;;8.03;100.00
51928;BME280;37953;52.806;18.270;2022-12-29T09:14:25;99834.03;;;8.04;100.00
51928;BME280;37953;52.806;18.270;2022-12-29T09:16:51;99819.38;;;8.06;100.00
51928;BME280;37953;52.806;18.270;2022-12-29T09:19:35;99815.09;;;8.07;100.00
51928;BME280;37953;52.806;18.270;2022-12-29T09:22:01;99807.31;;;8.08;100.00
51928;BME280;37953;52.806;18.270;2022-12-29T09:24:27;99805.59;;;8.10;100.00
51928;BME280;37953;52.806;18.270;2022-12-29T09:26:53;99814.22;;;8.12;100.00
51928;BME280;37953;52.806;18.270;2022-12-29T09:29:18;99805.63;;;8.13;100.00
51928;BME280;37953;52.806;18.270;2022-12-29T09:31:44;99811.66;;;8.15;100.00
51928;BME280;37953;52.806;18.270;2022-12-29T09:34:10;99811.66;;;8.15;100.00
51928;BME280;37953;52.806;18.270;2022-12-29T09:36:36;99812.53;;;8.18;100.00
51928;BME280;37953;52.806;18.270;2022-12-29T09:39:02;99809.09;;;8.17;100.00
51928;BME280;37953;52.806;18.270;2022-12-29T09:41:34;99808.22;;;8.18;100.00
51928;BME280;37953;52.806;18.270;2022-12-29T09:44:03;99804.78;;;8.19;100.00
51928;BME280;37953;52.806;18.270;2022-12-29T09:51:43;99799.59;;;8.21;100.00
51928;BME280;37953;52.806;18.270;2022-12-29T09:54:24;99794.41;;;8.21;100.00
51928;BME280;37953;52.806;18.270;2022-12-29T09:56:55;99790.97;;;8.23;100.00
51928;BME280;37953;52.806;18.270;2022-12-29T09:59:22;99788.38;;;8.25;100.00
51928;BME280;37953;52.806;18.270;2022-12-29T10:04:19;99779.75;;;8.27;100.00
51928;BME280;37953;52.806;18.270;2022-12-29T10:06:47;99794.44;;;8.30;100.00
51928;BME280;37953;52.806;18.270;2022-12-29T10:19:44;99779.78;;;8.35;100.00
51928;BME280;37953;52.806;18.270;2022-12-29T10:24:58;99790.13;;;8.38;100.00
51928;BME280;37953;52.806;18.270;2022-12-29T10:27:31;99784.94;;;8.40;100.00
51928;BME280;37953;52.806;18.270;2022-12-29T10:29:59;99778.91;;;8.39;100.00
51928;BME280;37953;52.806;18.270;2022-12-29T10:32:34;99777.22;;;8.41;100.00
51928;BME280;37953;52.806;18.270;2022-12-29T10:35:14;99773.75;;;8.42;100.00
51928;BME280;37953;52.806;18.270;2022-12-29T10:37:46;99777.22;;;8.43;100.00
51928;BME280;37953;52.806;18.270;2022-12-29T10:40:17;99775.50;;;8.45;100.00
51928;BME280;37953;52.806;18.270;2022-12-29T10:42:45;99779.81;;;8.47;100.00
51928;BME280;37953;52.806;18.270;2022-12-29T10:45:12;99772.91;;;8.48;100.00
51928;BME280;37953;52.806;18.270;2022-12-29T10:47:42;99780.69;;;8.49;100.00
51928;BME280;37953;52.806;18.270;2022-12-29T10:50:12;99789.31;;;8.51;100.00
51928;BME280;37953;52.806;18.270;2022-12-29T10:52:38;99781.53;;;8.51;100.00
51928;BME280;37953;52.806;18.270;2022-12-29T10:55:08;99773.78;;;8.53;100.00
51928;BME280;37953;52.806;18.270;2022-12-29T10:57:59;99769.47;;;8.53;100.00
51928;BME280;37953;52.806;18.270;2022-12-29T11:00:27;99767.75;;;8.55;100.00
51928;BME280;37953;52.806;18.270;2022-12-29T11:08:10;99753.91;;;8.63;100.00
51928;BME280;37953;52.806;18.270;2022-12-29T11:10:41;99759.94;;;8.63;100.00
51928;BME280;37953;52.806;18.270;2022-12-29T11:15:40;99750.47;;;8.68;100.00
51928;BME280;37953;52.806;18.270;2022-12-29T11:18:16;99753.03;;;8.70;100.00
51928;BME280;37953;52.806;18.270;2022-12-29T11:20:42;99765.13;;;8.72;100.00
51928;BME280;37953;52.806;18.270;2022-12-29T11:28:31;99738.38;;;8.83;100.00
51928;BME280;37953;52.806;18.270;2022-12-29T11:30:59;99726.25;;;8.86;100.00
51928;BME280;37953;52.806;18.270;2022-12-29T11:33:27;99734.88;;;8.90;100.00
51928;BME280;37953;52.806;18.270;2022-12-29T11:35:59;99727.09;;;8.94;100.00
51928;BME280;37953;52.806;18.270;2022-12-29T11:38:31;99728.81;;;8.99;100.00
51928;BME280;37953;52.806;18.270;2022-12-29T11:41:05;99729.69;;;9.01;100.00
51928;BME280;37953;52.806;18.270;2022-12-29T11:43:34;99723.63;;;9.05;100.00
51928;BME280;37953;52.806;18.270;2022-12-29T11:46:02;99732.25;;;9.07;100.00
51928;BME280;37953;52.806;18.270;2022-12-29T11:48:39;99720.16;;;9.09;100.00
51928;BME280;37953;52.806;18.270;2022-12-29T11:51:05;99709.78;;;9.10;100.00
51928;BME280;37953;52.806;18.270;2022-12-29T11:53:45;99709.78;;;9.12;100.00
51928;BME280;37953;52.806;18.270;2022-12-29T11:56:13;99715.81;;;9.14;100.00
51928;BME280;37953;52.806;18.270;2022-12-29T11:58:40;99708.03;;;9.15;100.00
51928;BME280;37953;52.806;18.270;2022-12-29T12:01:07;99697.66;;;9.17;100.00
51928;BME280;37953;52.806;18.270;2022-12-29T12:03:38;99692.50;;;9.19;100.00
51928;BME280;37953;52.806;18.270;2022-12-29T12:06:17;99697.66;;;9.20;100.00
51928;BME280;37953;52.806;18.270;2022-12-29T12:08:54;99691.63;;;9.21;100.00
51928;BME280;37953;52.806;18.270;2022-12-29T12:11:26;99694.19;;;9.24;100.00
51928;BME280;37953;52.806;18.270;2022-12-29T12:14:05;99697.63;;;9.26;100.00
51928;BME280;37953;52.806;18.270;2022-12-29T12:16:36;99700.22;;;9.28;100.00
51928;BME280;37953;52.806;18.270;2022-12-29T12:19:09;99697.59;;;9.31;100.00
51928;BME280;37953;52.806;18.270;2022-12-29T12:21:40;99693.31;;;9.31;100.00
51928;BME280;37953;52.806;18.270;2022-12-29T12:29:46;99686.31;;;9.40;100.00
51928;BME280;37953;52.806;18.270;2022-12-29T12:32:23;99682.03;;;9.40;100.00
51928;BME280;37953;52.806;18.270;2022-12-29T12:35:12;99679.41;;;9.42;100.00
51928;BME280;37953;52.806;18.270;2022-12-29T12:38:00;99694.94;;;9.43;100.00
51928;BME280;37953;52.806;18.270;2022-12-29T12:40:34;99688.03;;;9.44;100.00
51928;BME280;37953;52.806;18.270;2022-12-29T12:51:05;99700.13;;;9.45;100.00
51928;BME280;37953;52.806;18.270;2022-12-29T12:53:41;99699.25;;;9.46;100.00
51928;BME280;37953;52.806;18.270;2022-12-29T13:09:12;99691.47;;;9.50;100.00
51928;BME280;37953;52.806;18.270;2022-12-29T13:11:57;99696.66;;;9.50;100.00
51928;BME280;37953;52.806;18.270;2022-12-29T13:17:46;99692.31;;;9.52;100.00
51928;BME280;37953;52.806;18.270;2022-12-29T13:25:35;99694.91;;;9.52;100.00
51928;BME280;37953;52.806;18.270;2022-12-29T13:28:25;99693.19;;;9.53;100.00
51928;BME280;37953;52.806;18.270;2022-12-29T13:30:58;99695.78;;;9.53;100.00
51928;BME280;37953;52.806;18.270;2022-12-29T13:38:38;99705.25;;;9.52;100.00
51928;BME280;37953;52.806;18.270;2022-12-29T13:41:06;99699.22;;;9.52;100.00
51928;BME280;37953;52.806;18.270;2022-12-29T13:43:34;99703.56;;;9.51;100.00
51928;BME280;37953;52.806;18.270;2022-12-29T13:46:12;99705.28;;;9.51;100.00
51928;BME280;37953;52.806;18.270;2022-12-29T13:48:41;99689.75;;;9.51;100.00
51928;BME280;37953;52.806;18.270;2022-12-29T13:51:08;99698.38;;;9.50;100.00
51928;BME280;37953;52.806;18.270;2022-12-29T13:58:58;99707.88;;;9.51;100.00
51928;BME280;37953;52.806;18.270;2022-12-29T14:04:02;99708.75;;;9.51;100.00
51928;BME280;37953;52.806;18.270;2022-12-29T14:06:34;99714.78;;;9.52;100.00
51928;BME280;37953;52.806;18.270;2022-12-29T14:09:06;99709.59;;;9.52;100.00
51928;BME280;37953;52.806;18.270;2022-12-29T14:11:51;99707.00;;;9.52;100.00
51928;BME280;37953;52.806;18.270;2022-12-29T14:14:27;99717.38;;;9.52;100.00
51928;BME280;37953;52.806;18.270;2022-12-29T14:16:54;99726.91;;;9.53;100.00
51928;BME280;37953;52.806;18.270;2022-12-29T14:21:52;99724.31;;;9.51;100.00
51928;BME280;37953;52.806;18.270;2022-12-29T14:24:28;99731.19;;;9.52;100.00
51928;BME280;37953;52.806;18.270;2022-12-29T14:34:50;99726.88;;;9.50;100.00
51928;BME280;37953;52.806;18.270;2022-12-29T14:39:47;99739.00;;;9.49;100.00
51928;BME280;37953;52.806;18.270;2022-12-29T14:42:14;99731.22;;;9.49;100.00
51928;BME280;37953;52.806;18.270;2022-12-29T14:47:18;99733.81;;;9.48;100.00
51928;BME280;37953;52.806;18.270;2022-12-29T14:49:45;99726.91;;;9.47;100.00
51928;BME280;37953;52.806;18.270;2022-12-29T14:54:46;99739.03;;;9.46;100.00
51928;BME280;37953;52.806;18.270;2022-12-29T14:57:19;99734.69;;;9.47;100.00
51928;BME280;37953;52.806;18.270;2022-12-29T14:59:46;99719.13;;;9.47;100.00
51928;BME280;37953;52.806;18.270;2022-12-29T15:02:14;99726.91;;;9.47;100.00
51928;BME280;37953;52.806;18.270;2022-12-29T15:04:40;99720.00;;;9.47;100.00
51928;BME280;37953;52.806;18.270;2022-12-29T15:07:07;99722.59;;;9.47;100.00
51928;BME280;37953;52.806;18.270;2022-12-29T15:09:39;99723.44;;;9.48;100.00
51928;BME280;37953;52.806;18.270;2022-12-29T15:14:55;99724.31;;;9.48;100.00
51928;BME280;37953;52.806;18.270;2022-12-29T15:17:30;99715.66;;;9.49;100.00
51928;BME280;37953;52.806;18.270;2022-12-29T15:22:45;99705.28;;;9.49;100.00
51928;BME280;37953;52.806;18.270;2022-12-29T15:25:12;99716.53;;;9.50;100.00